createdAt,value
2019-05-14T00:00:26.472Z,7.65
2019-05-14T00:02:55.856Z,7.59
2019-05-14T00:05:25.227Z,7.59
2019-05-14T00:07:54.890Z,7.55
2019-05-14T00:10:24.601Z,7.51
2019-05-14T00:12:53.972Z,7.46
2019-05-14T00:15:24.314Z,7.40
2019-05-14T00:17:53.899Z,7.30
2019-05-14T00:20:23.263Z,7.30
2019-05-14T00:22:53.855Z,7.27
2019-05-14T00:25:23.297Z,7.23
2019-05-14T00:27:52.986Z,7.17
2019-05-14T00:30:22.369Z,7.17
2019-05-14T00:32:52.199Z,7.13
2019-05-14T00:35:22.222Z,7.10
2019-05-14T00:37:52.213Z,7.09
2019-05-14T00:40:22.406Z,7.06
2019-05-14T00:42:53.261Z,7.02
2019-05-14T00:45:24.007Z,7.02
2019-05-14T00:47:53.358Z,7.02
2019-05-14T00:50:25.597Z,6.97
2019-05-14T00:52:55.274Z,6.92
2019-05-14T00:55:25.234Z,6.92
2019-05-14T00:57:56.434Z,6.91
2019-05-14T01:00:26.051Z,6.89
2019-05-14T01:02:55.428Z,6.89
2019-05-14T01:05:25.003Z,6.87
2019-05-14T01:07:54.354Z,6.85
2019-05-14T01:10:24.016Z,6.83
2019-05-14T01:12:53.183Z,6.82
2019-05-14T01:15:22.565Z,6.80
2019-05-14T01:17:52.921Z,6.77
2019-05-14T01:20:23.649Z,6.75
2019-05-14T01:22:53.149Z,6.73
2019-05-14T01:25:23.712Z,6.70
2019-05-14T01:27:53.262Z,6.67
2019-05-14T01:30:23.521Z,6.64
2019-05-14T01:32:54.068Z,6.61
2019-05-14T01:35:23.438Z,6.61
2019-05-14T01:37:53.101Z,6.61
2019-05-14T01:40:26.287Z,6.60
2019-05-14T01:42:55.637Z,6.59
2019-05-14T01:45:28.422Z,6.58
2019-05-14T01:47:56.244Z,6.56
2019-05-14T01:50:25.604Z,6.55
2019-05-14T01:52:55.233Z,6.53
2019-05-14T01:55:24.637Z,6.50
2019-05-14T01:58:05.451Z,6.47
2019-05-14T02:00:44.378Z,6.43
2019-05-14T02:03:14.061Z,6.35
2019-05-14T02:05:43.885Z,6.31
2019-05-14T02:08:13.438Z,6.30
2019-05-14T02:10:42.826Z,6.28
2019-05-14T02:13:12.504Z,6.26
2019-05-14T02:15:42.999Z,6.23
2019-05-14T02:18:32.366Z,6.20
2019-05-14T02:21:01.936Z,6.19
2019-05-14T02:23:52.223Z,6.13
2019-05-14T02:27:03.559Z,6.12
2019-05-14T02:29:33.208Z,6.12
2019-05-14T02:32:02.586Z,6.10
2019-05-14T02:34:32.236Z,6.07
2019-05-14T02:37:01.621Z,6.06
2019-05-14T02:40:10.241Z,6.04
2019-05-14T02:42:40.360Z,6.00
2019-05-14T02:45:20.421Z,5.97
2019-05-14T02:50:44.372Z,5.94
2019-05-14T02:53:13.720Z,5.92
2019-05-14T02:55:43.379Z,5.92
2019-05-14T02:58:12.765Z,5.92
2019-05-14T03:00:42.292Z,5.91
2019-05-14T03:03:13.634Z,5.86
2019-05-14T03:05:43.336Z,5.78
2019-05-14T03:08:13.022Z,5.78
2019-05-14T03:10:42.492Z,5.76
2019-05-14T03:13:11.869Z,5.74
2019-05-14T03:15:41.421Z,5.68
2019-05-14T03:18:11.383Z,5.65
2019-05-14T03:20:42.439Z,5.66
2019-05-14T03:23:18.182Z,5.67
2019-05-14T03:26:02.240Z,5.68
2019-05-14T03:28:31.617Z,5.69
2019-05-14T03:31:03.997Z,5.67
2019-05-14T03:33:44.091Z,5.65
2019-05-14T03:36:25.946Z,5.65
2019-05-14T03:41:39.373Z,5.58
2019-05-14T03:44:28.917Z,5.61
2019-05-14T03:47:09.965Z,5.62
2019-05-14T03:49:42.454Z,5.66
2019-05-14T03:52:11.834Z,5.70
2019-05-14T03:54:41.492Z,5.73
2019-05-14T03:57:11.151Z,5.74
2019-05-14T03:59:40.864Z,5.77
2019-05-14T04:02:30.835Z,5.79
2019-05-14T04:05:00.484Z,5.82
2019-05-14T04:07:50.330Z,5.82
2019-05-14T04:20:09.548Z,5.85
2019-05-14T04:23:39.568Z,5.83
2019-05-14T04:35:42.579Z,5.89
2019-05-14T04:38:11.952Z,5.94
2019-05-14T04:40:41.609Z,5.99
2019-05-14T04:43:10.992Z,6.04
2019-05-14T04:45:40.666Z,6.09
2019-05-14T04:48:27.164Z,6.12
2019-05-14T04:51:00.775Z,6.15
2019-05-14T04:53:49.944Z,6.14
2019-05-14T04:56:19.776Z,6.14
2019-05-14T04:59:10.683Z,6.11
2019-05-14T05:01:49.298Z,6.08
2019-05-14T05:04:23.879Z,6.06
2019-05-14T05:06:53.560Z,6.10
2019-05-14T05:09:22.963Z,6.11
2019-05-14T05:11:52.623Z,6.16
2019-05-14T05:14:23.872Z,6.19
2019-05-14T05:16:59.730Z,6.23
2019-05-14T05:19:39.082Z,6.27
2019-05-14T05:22:13.013Z,6.40
2019-05-14T05:24:42.663Z,6.72
2019-05-14T05:27:12.054Z,6.72
2019-05-14T05:29:41.747Z,6.91
2019-05-14T05:32:11.417Z,7.10
2019-05-14T05:34:40.874Z,7.29
2019-05-14T05:37:10.250Z,7.47
2019-05-14T05:39:39.761Z,7.68
2019-05-14T05:42:09.430Z,7.87
2019-05-14T05:45:18.962Z,8.02
2019-05-14T05:48:08.344Z,8.30
2019-05-14T05:50:59.164Z,8.30
2019-05-14T05:53:54.067Z,8.65
2019-05-14T05:56:25.625Z,8.65
2019-05-14T05:58:55.015Z,8.87
2019-05-14T06:01:46.475Z,9.06
2019-05-14T06:04:21.169Z,9.24
2019-05-14T06:06:50.856Z,9.41
2019-05-14T06:09:20.234Z,9.40
2019-05-14T06:11:49.842Z,9.31
2019-05-14T06:14:19.510Z,9.31
2019-05-14T06:17:08.746Z,9.58
2019-05-14T06:19:44.927Z,9.58
2019-05-14T06:22:14.290Z,9.68
2019-05-14T06:24:43.929Z,9.72
2019-05-14T06:27:13.285Z,9.64
2019-05-14T06:29:42.904Z,9.58
2019-05-14T06:32:12.262Z,9.58
2019-05-14T06:34:53.898Z,9.99
2019-05-14T06:37:23.280Z,9.99
2019-05-14T06:39:52.931Z,10.25
2019-05-14T06:42:22.291Z,10.30
2019-05-14T06:44:51.905Z,10.27
2019-05-14T06:47:21.556Z,10.30
2019-05-14T06:49:51.088Z,10.45
2019-05-14T06:52:20.455Z,10.57
2019-05-14T06:54:50.019Z,10.78
2019-05-14T06:57:19.383Z,10.96
2019-05-14T06:59:48.907Z,11.08
2019-05-14T07:02:19.301Z,11.32
2019-05-14T07:05:08.618Z,11.60
2019-05-14T07:07:40.469Z,11.81
2019-05-14T07:10:28.800Z,11.81
2019-05-14T07:13:04.487Z,11.82
2019-05-14T07:15:34.051Z,11.94
2019-05-14T07:23:49.029Z,12.87
2019-05-14T07:26:24.515Z,13.09
2019-05-14T07:29:13.082Z,13.30
2019-05-14T07:31:42.467Z,13.51
2019-05-14T07:34:12.009Z,13.54
2019-05-14T07:36:41.384Z,13.48
2019-05-14T07:39:11.333Z,13.45
2019-05-14T07:41:41.004Z,13.42
2019-05-14T07:44:10.373Z,13.41
2019-05-14T07:46:39.789Z,13.52
2019-05-14T07:49:11.782Z,13.78
2019-05-14T07:51:45.456Z,14.12
2019-05-14T07:54:15.060Z,14.37
2019-05-14T07:56:44.427Z,14.43
2019-05-14T07:59:14.097Z,14.45
2019-05-14T08:01:43.462Z,14.27
2019-05-14T08:04:20.005Z,14.21
2019-05-14T08:06:59.300Z,14.20
2019-05-14T08:12:39.156Z,14.36
2019-05-14T08:15:28.197Z,14.64
2019-05-14T08:17:58.580Z,14.91
2019-05-14T08:20:34.110Z,14.93
2019-05-14T08:23:03.475Z,14.99
2019-05-14T08:25:33.015Z,15.10
2019-05-14T08:28:02.636Z,15.17
2019-05-14T08:30:32.260Z,15.36
2019-05-14T08:33:01.665Z,15.52
2019-05-14T08:35:34.035Z,15.78
2019-05-14T08:38:21.308Z,16.09
2019-05-14T08:40:50.989Z,16.36
2019-05-14T08:43:20.379Z,16.45
2019-05-14T08:45:50.723Z,16.57
2019-05-14T08:48:20.227Z,16.55
2019-05-14T08:50:49.592Z,16.38
2019-05-14T08:53:19.122Z,16.29
2019-05-14T08:55:48.957Z,15.95
2019-05-14T08:58:25.470Z,15.66
2019-05-14T09:01:05.232Z,15.66
2019-05-14T09:03:34.613Z,15.66
2019-05-14T09:06:04.292Z,16.05
2019-05-14T09:17:48.457Z,16.89
2019-05-14T09:20:38.147Z,16.84
2019-05-14T09:23:14.306Z,16.80
2019-05-14T09:25:47.001Z,17.02
2019-05-14T09:28:23.742Z,17.50
2019-05-14T09:30:53.396Z,17.91
2019-05-14T09:33:24.375Z,18.25
2019-05-14T09:36:13.584Z,18.67
2019-05-14T09:38:42.111Z,18.94
2019-05-14T09:41:18.399Z,19.16
2019-05-14T09:43:53.362Z,19.25
2019-05-14T09:46:22.743Z,18.95
2019-05-14T09:48:52.405Z,18.46
2019-05-14T09:51:21.805Z,17.91
2019-05-14T09:53:51.427Z,17.49
2019-05-14T09:56:20.803Z,17.23
2019-05-14T09:58:50.474Z,17.33
2019-05-14T10:01:21.562Z,17.68
2019-05-14T10:03:50.951Z,17.89
2019-05-14T10:06:20.972Z,17.56
2019-05-14T10:09:10.621Z,17.46
2019-05-14T10:11:40.000Z,17.48
2019-05-14T10:14:09.565Z,17.44
2019-05-14T10:16:38.985Z,17.62
2019-05-14T10:19:08.498Z,17.83
2019-05-14T10:21:38.863Z,17.91
2019-05-14T10:24:29.136Z,18.29
2019-05-14T10:27:09.266Z,18.73
2019-05-14T10:29:45.141Z,19.05
2019-05-14T10:32:14.572Z,19.35
2019-05-14T10:34:43.928Z,19.45
2019-05-14T10:37:13.490Z,19.18
2019-05-14T10:39:42.849Z,18.63
2019-05-14T10:42:20.055Z,18.45
2019-05-14T10:45:01.834Z,18.42
2019-05-14T10:47:32.834Z,18.59
2019-05-14T10:50:02.526Z,18.70
2019-05-14T10:52:31.905Z,18.76
2019-05-14T10:55:01.560Z,18.49
2019-05-14T10:57:30.936Z,18.13
2019-05-14T11:00:00.587Z,18.00
2019-05-14T11:02:29.964Z,17.98
2019-05-14T11:04:59.621Z,17.87
2019-05-14T11:07:29.310Z,17.63
2019-05-14T11:10:19.667Z,17.82
2019-05-14T11:12:50.662Z,18.13
2019-05-14T11:15:39.686Z,18.25
2019-05-14T11:18:09.031Z,18.57
2019-05-14T11:20:42.147Z,18.89
2019-05-14T11:23:18.297Z,19.22
2019-05-14T11:25:58.144Z,19.28
2019-05-14T11:28:39.277Z,19.14
2019-05-14T11:31:13.614Z,18.65
2019-05-14T11:33:42.993Z,18.41
2019-05-14T11:36:12.654Z,18.38
2019-05-14T11:38:42.157Z,18.52
2019-05-14T11:41:11.705Z,18.60
2019-05-14T11:43:41.085Z,18.60
2019-05-14T11:49:01.041Z,18.74
2019-05-14T11:51:58.411Z,19.00
2019-05-14T11:54:09.478Z,19.29
2019-05-14T11:56:43.828Z,19.41
2019-05-14T12:02:09.748Z,19.90
2019-05-14T12:04:39.330Z,20.16
2019-05-14T12:07:09.592Z,20.42
2019-05-14T12:09:45.034Z,20.59
2019-05-14T12:12:18.825Z,20.54
2019-05-14T12:15:48.594Z,20.83
2019-05-14T12:18:23.260Z,21.02
2019-05-14T12:20:52.986Z,21.26
2019-05-14T12:23:23.985Z,21.05
2019-05-14T12:25:53.640Z,20.71
2019-05-14T12:28:23.072Z,20.26
2019-05-14T12:30:53.017Z,19.87
2019-05-14T12:33:34.522Z,20.06
2019-05-14T12:36:03.898Z,20.71
2019-05-14T12:38:33.274Z,21.34
2019-05-14T12:41:02.970Z,21.64
2019-05-14T12:43:32.358Z,21.87
2019-05-14T12:46:02.022Z,21.95
2019-05-14T12:48:33.002Z,21.90
2019-05-14T12:51:02.387Z,21.83
2019-05-14T12:53:31.830Z,21.55
2019-05-14T12:56:01.497Z,21.15
2019-05-14T12:58:30.892Z,20.86
2019-05-14T13:01:00.277Z,20.89
2019-05-14T13:03:29.889Z,21.22
2019-05-14T13:05:59.532Z,21.20
2019-05-14T13:08:29.078Z,20.69
2019-05-14T13:10:58.766Z,20.20
2019-05-14T13:13:34.911Z,19.89
2019-05-14T13:16:04.655Z,19.58
2019-05-14T13:18:34.051Z,19.26
2019-05-14T13:21:03.404Z,19.25
2019-05-14T13:23:32.969Z,19.70
2019-05-14T13:26:02.651Z,20.21
2019-05-14T13:28:33.927Z,20.67
2019-05-14T13:31:03.283Z,21.19
2019-05-14T13:33:32.966Z,21.42
2019-05-14T13:36:02.350Z,21.37
2019-05-14T13:38:32.251Z,21.31
2019-05-14T13:41:01.940Z,21.37
2019-05-14T13:43:31.303Z,21.40
2019-05-14T13:46:00.986Z,21.40
2019-05-14T13:48:30.342Z,21.36
2019-05-14T13:51:00.013Z,21.22
2019-05-14T13:53:29.753Z,20.89
2019-05-14T13:56:08.840Z,20.81
2019-05-14T13:59:09.087Z,20.68
2019-05-14T14:01:43.045Z,20.68
2019-05-14T14:04:15.183Z,20.50
2019-05-14T14:07:02.866Z,20.51
2019-05-14T14:09:32.254Z,20.71
2019-05-14T14:12:01.933Z,20.81
2019-05-14T14:14:31.632Z,20.85
2019-05-14T14:17:01.248Z,20.86
2019-05-14T14:22:24.654Z,20.97
2019-05-14T14:25:08.899Z,20.73
2019-05-14T14:27:40.766Z,20.73
2019-05-14T14:30:15.272Z,20.58
2019-05-14T14:32:44.893Z,20.30
2019-05-14T14:38:49.453Z,20.76
2019-05-14T14:41:25.260Z,20.89
2019-05-14T14:43:55.372Z,20.87
2019-05-14T14:46:31.581Z,20.92
2019-05-14T14:52:04.081Z,20.90
2019-05-14T14:54:33.454Z,20.61
2019-05-14T14:57:04.737Z,20.51
2019-05-14T14:59:34.193Z,20.58
2019-05-14T15:02:03.606Z,20.53
2019-05-14T15:04:33.129Z,20.64
2019-05-14T15:07:02.819Z,20.88
2019-05-14T15:09:32.161Z,21.07
2019-05-14T15:12:01.537Z,20.97
2019-05-14T15:14:31.204Z,20.89
2019-05-14T15:17:00.570Z,20.89
2019-05-14T15:19:30.187Z,20.94
2019-05-14T15:22:11.904Z,21.01
2019-05-14T15:24:41.252Z,21.03
2019-05-14T15:27:15.045Z,21.03
2019-05-14T15:30:01.390Z,21.03
2019-05-14T15:32:32.389Z,21.14
2019-05-14T15:35:01.746Z,21.25
2019-05-14T15:37:31.595Z,21.27
2019-05-14T15:40:22.517Z,21.27
2019-05-14T15:42:58.985Z,21.14
2019-05-14T15:45:34.568Z,20.99
2019-05-14T15:48:04.493Z,20.75
2019-05-14T15:50:33.858Z,20.68
2019-05-14T15:53:22.834Z,20.75
2019-05-14T15:55:52.450Z,20.75
2019-05-14T15:58:21.897Z,20.61
2019-05-14T16:00:51.558Z,20.33
2019-05-14T16:03:21.200Z,20.15
2019-05-14T16:05:50.878Z,19.95
2019-05-14T16:08:22.697Z,19.87
2019-05-14T16:11:11.308Z,19.90
2019-05-14T16:13:49.379Z,20.00
2019-05-14T16:16:24.289Z,20.09
2019-05-14T16:18:53.657Z,20.21
2019-05-14T16:21:23.221Z,20.31
2019-05-14T16:23:54.505Z,20.33
2019-05-14T16:26:23.865Z,20.22
2019-05-14T16:28:53.549Z,19.98
2019-05-14T16:31:22.728Z,19.68
2019-05-14T16:33:52.396Z,19.49
2019-05-14T16:36:21.754Z,19.42
2019-05-14T16:38:51.510Z,19.43
2019-05-14T16:41:20.889Z,19.42
2019-05-14T16:43:50.604Z,19.42
2019-05-14T16:46:20.276Z,19.44
2019-05-14T16:48:49.965Z,19.44
2019-05-14T16:51:19.588Z,19.47
2019-05-14T16:53:49.505Z,19.54
2019-05-14T16:56:19.329Z,19.56
2019-05-14T16:59:09.395Z,19.47
2019-05-14T17:01:40.396Z,19.34
2019-05-14T17:04:09.778Z,19.13
2019-05-14T17:06:39.266Z,19.01
2019-05-14T17:09:08.972Z,18.88
2019-05-14T17:11:59.483Z,18.77
2019-05-14T17:14:29.406Z,18.61
2019-05-14T17:17:31.625Z,18.28
2019-05-14T17:20:01.297Z,18.28
2019-05-14T17:22:33.828Z,18.17
2019-05-14T17:25:09.311Z,18.11
2019-05-14T17:27:43.747Z,18.05
2019-05-14T17:30:13.395Z,18.05
2019-05-14T17:32:42.752Z,18.05
2019-05-14T17:35:12.545Z,18.07
2019-05-14T17:37:42.194Z,18.08
2019-05-14T17:40:32.483Z,18.08
2019-05-14T17:43:01.851Z,18.12
2019-05-14T17:58:13.152Z,17.65
2019-05-14T18:00:44.910Z,17.55
2019-05-14T18:03:14.352Z,17.48
2019-05-14T18:05:43.735Z,17.40
2019-05-14T18:08:13.394Z,17.32
2019-05-14T18:10:42.771Z,17.28
2019-05-14T18:13:12.442Z,17.26
2019-05-14T18:15:41.827Z,17.25
2019-05-14T18:18:12.833Z,17.23
2019-05-14T18:20:42.519Z,17.21
2019-05-14T18:23:11.981Z,17.17
2019-05-14T18:25:41.443Z,17.09
2019-05-14T18:28:10.827Z,17.02
2019-05-14T18:30:40.495Z,16.98
2019-05-14T18:33:09.867Z,16.92
2019-05-14T18:35:43.977Z,16.87
2019-05-14T18:38:16.015Z,16.82
2019-05-14T18:40:45.691Z,16.78
2019-05-14T18:43:15.133Z,16.70
2019-05-14T18:49:36.999Z,16.52
2019-05-14T18:52:08.939Z,16.39
2019-05-14T18:54:44.326Z,16.34
2019-05-14T18:57:13.837Z,16.30
2019-05-14T18:59:43.566Z,16.24
2019-05-14T19:02:12.932Z,16.17
2019-05-14T19:04:42.627Z,16.11
2019-05-14T19:07:15.430Z,16.04
2019-05-14T19:10:02.177Z,15.99
2019-05-14T19:12:32.181Z,15.92
2019-05-14T19:15:01.933Z,15.84
2019-05-14T19:17:31.596Z,15.76
2019-05-14T19:20:01.520Z,15.67
2019-05-14T19:22:30.975Z,15.57
2019-05-14T19:25:00.361Z,15.49
2019-05-14T19:27:48.601Z,15.40
2019-05-14T19:30:19.178Z,15.28
2019-05-14T19:32:48.926Z,15.17
2019-05-14T19:35:19.154Z,15.09
2019-05-14T19:37:49.049Z,14.97
2019-05-14T19:40:19.118Z,14.85
2019-05-14T19:42:49.840Z,14.77
2019-05-14T19:45:19.285Z,14.69
2019-05-14T19:47:49.447Z,14.59
2019-05-14T19:50:18.987Z,14.44
2019-05-14T19:52:48.881Z,14.34
2019-05-14T19:55:18.885Z,14.24
2019-05-14T19:57:48.978Z,14.16
2019-05-14T20:00:23.841Z,14.06
2019-05-14T20:02:53.518Z,13.95
2019-05-14T20:05:22.952Z,13.87
2019-05-14T20:07:52.789Z,13.79
2019-05-14T20:10:22.173Z,13.73
2019-05-14T20:12:51.840Z,13.68
2019-05-14T20:15:21.215Z,13.61
2019-05-14T20:17:50.882Z,13.56
2019-05-14T20:20:20.261Z,13.56
2019-05-14T20:22:50.163Z,13.63
2019-05-14T20:25:19.875Z,13.69
2019-05-14T20:27:50.208Z,13.74
2019-05-14T20:30:20.058Z,13.78
2019-05-14T20:32:49.674Z,13.79
2019-05-14T20:35:30.937Z,13.86
2019-05-14T20:37:50.160Z,13.93
2019-05-14T20:40:19.542Z,13.94
2019-05-14T20:42:49.368Z,13.89
2019-05-14T20:45:19.246Z,13.82
2019-05-14T20:47:48.618Z,13.79
2019-05-14T20:50:18.291Z,13.72
2019-05-14T20:52:48.479Z,13.72
2019-05-14T20:55:19.061Z,13.70
2019-05-14T20:57:49.509Z,13.68
2019-05-14T21:00:19.209Z,13.69
2019-05-14T21:02:48.872Z,13.82
2019-05-14T21:05:18.867Z,13.82
2019-05-14T21:07:49.304Z,13.50
2019-05-14T21:10:19.263Z,13.50
2019-05-14T21:12:48.951Z,13.35
2019-05-14T21:15:18.365Z,13.21
2019-05-14T21:17:50.377Z,13.08
2019-05-14T21:20:20.417Z,12.96
2019-05-14T21:22:50.235Z,12.80
2019-05-14T21:25:19.615Z,12.67
2019-05-14T21:27:52.039Z,12.58
2019-05-14T21:30:21.910Z,12.49
2019-05-14T21:32:51.683Z,12.41
2019-05-14T21:35:21.311Z,12.34
2019-05-14T21:37:51.503Z,12.29
2019-05-14T21:40:21.022Z,12.23
2019-05-14T21:42:50.385Z,12.18
2019-05-14T21:45:20.126Z,12.14
2019-05-14T21:47:49.515Z,12.07
2019-05-14T21:50:19.146Z,12.01
2019-05-14T21:52:49.549Z,12.00
2019-05-14T21:55:20.140Z,11.97
2019-05-14T21:57:56.516Z,11.93
2019-05-14T22:00:29.470Z,11.93
2019-05-14T22:03:00.593Z,12.28
2019-05-14T22:05:30.154Z,12.79
2019-05-14T22:07:59.575Z,12.94
2019-05-14T22:10:29.124Z,12.78
2019-05-14T22:12:58.576Z,12.56
2019-05-14T22:15:29.260Z,12.33
2019-05-14T22:17:58.909Z,12.15
2019-05-14T22:20:28.976Z,11.99
2019-05-14T22:22:59.103Z,11.87
2019-05-14T22:25:31.223Z,11.73
2019-05-14T22:28:11.516Z,11.61
2019-05-14T22:30:32.177Z,11.51
2019-05-14T22:33:01.559Z,11.42
2019-05-14T22:35:32.131Z,11.32
2019-05-14T22:38:01.806Z,11.25
2019-05-14T22:40:31.243Z,11.21
2019-05-14T22:43:00.627Z,11.18
2019-05-14T22:45:30.161Z,11.14
2019-05-14T22:47:59.843Z,11.10
2019-05-14T22:50:29.574Z,11.08
2019-05-14T22:52:59.251Z,11.03
2019-05-14T22:55:31.185Z,10.99
2019-05-14T22:58:01.240Z,10.95
2019-05-14T23:03:05.773Z,10.84
2019-05-14T23:05:35.243Z,10.76
2019-05-14T23:08:04.627Z,10.69
2019-05-14T23:10:34.306Z,10.62
2019-05-14T23:13:03.747Z,10.55
2019-05-14T23:15:33.255Z,10.50
2019-05-14T23:18:02.635Z,10.46
2019-05-14T23:20:32.299Z,10.43
2019-05-14T23:23:01.683Z,10.39
2019-05-14T23:25:31.272Z,10.33
2019-05-14T23:28:00.683Z,10.27
2019-05-14T23:30:59.707Z,10.30
2019-05-14T23:33:43.164Z,10.75
2019-05-14T23:36:12.528Z,11.46
2019-05-14T23:38:42.203Z,11.67
2019-05-14T23:41:11.588Z,11.54
2019-05-14T23:43:41.287Z,11.25
2019-05-14T23:46:10.671Z,10.93
2019-05-14T23:48:40.353Z,10.63
2019-05-14T23:51:10.011Z,10.40
2019-05-14T23:53:39.502Z,10.21
2019-05-14T23:56:09.120Z,10.01
2019-05-14T23:58:38.506Z,9.89
